createdAt,value
2018-02-15T00:01:57.998Z,67.46
2018-02-15T00:04:25.390Z,67.53
2018-02-15T00:06:52.822Z,67.42
2018-02-15T00:09:20.274Z,67.67
2018-02-15T00:11:47.669Z,67.44
2018-02-15T00:14:15.075Z,67.21
2018-02-15T00:16:42.543Z,67.16
2018-02-15T00:19:09.937Z,67.06
2018-02-15T00:21:37.327Z,67.37
2018-02-15T00:24:04.732Z,67.20
2018-02-15T00:26:32.181Z,66.74
2018-02-15T00:28:59.595Z,66.60
2018-02-15T00:31:26.993Z,66.55
2018-02-15T00:33:54.448Z,66.44
2018-02-15T00:36:21.902Z,66.41
2018-02-15T00:38:49.358Z,66.18
2018-02-15T00:41:16.763Z,66.36
2018-02-15T00:43:44.178Z,66.59
2018-02-15T00:46:11.631Z,66.44
2018-02-15T00:48:39.021Z,66.53
2018-02-15T00:51:06.499Z,66.64
2018-02-15T00:53:33.962Z,66.61
2018-02-15T00:56:01.350Z,66.52
2018-02-15T00:58:28.745Z,66.36
2018-02-15T01:00:56.138Z,66.52
2018-02-15T01:03:23.550Z,66.42
2018-02-15T01:05:50.947Z,66.50
2018-02-15T01:08:18.353Z,66.36
2018-02-15T01:10:45.738Z,66.31
2018-02-15T01:13:13.142Z,66.20
2018-02-15T01:15:40.564Z,65.95
2018-02-15T01:18:08.023Z,66.20
2018-02-15T01:20:35.474Z,65.78
2018-02-15T01:23:02.930Z,65.56
2018-02-15T01:25:30.393Z,65.46
2018-02-15T01:27:57.794Z,65.61
2018-02-15T01:30:25.198Z,65.11
2018-02-15T01:32:52.595Z,65.47
2018-02-15T01:35:20.059Z,65.73
2018-02-15T01:37:47.514Z,65.44
2018-02-15T01:40:14.902Z,65.59
2018-02-15T01:42:42.317Z,65.75
2018-02-15T01:45:09.782Z,65.74
2018-02-15T01:47:37.170Z,65.69
2018-02-15T01:50:04.573Z,65.95
2018-02-15T01:52:32.002Z,65.69
2018-02-15T01:54:59.392Z,65.77
2018-02-15T01:57:26.795Z,65.37
2018-02-15T01:59:54.186Z,65.19
2018-02-15T02:02:21.662Z,65.22
2018-02-15T02:04:49.062Z,65.57
2018-02-15T02:07:16.470Z,65.22
2018-02-15T02:09:43.931Z,65.19
2018-02-15T02:12:11.317Z,65.18
2018-02-15T02:14:38.741Z,65.21
2018-02-15T02:17:06.148Z,65.31
2018-02-15T02:19:33.551Z,65.21
2018-02-15T02:22:01.021Z,65.07
2018-02-15T02:24:28.485Z,64.77
2018-02-15T02:26:55.918Z,64.59
2018-02-15T02:29:23.315Z,64.39
2018-02-15T02:31:50.713Z,64.64
2018-02-15T02:34:18.105Z,64.63
2018-02-15T02:36:45.490Z,64.49
2018-02-15T02:39:12.890Z,64.62
2018-02-15T02:41:40.290Z,64.30
2018-02-15T02:44:07.690Z,64.02
2018-02-15T02:46:35.123Z,64.22
2018-02-15T02:49:02.490Z,64.53
2018-02-15T02:51:29.874Z,64.86
2018-02-15T02:53:57.267Z,64.47
2018-02-15T02:56:24.650Z,64.39
2018-02-15T02:58:52.092Z,64.89
2018-02-15T03:01:19.474Z,64.65
2018-02-15T03:03:46.870Z,64.60
2018-02-15T03:06:14.254Z,64.65
2018-02-15T03:08:41.642Z,64.61
2018-02-15T03:11:09.051Z,64.64
2018-02-15T03:13:36.450Z,64.49
2018-02-15T03:16:03.847Z,64.39
2018-02-15T03:18:31.246Z,64.56
2018-02-15T03:20:58.645Z,64.37
2018-02-15T03:23:26.039Z,64.70
2018-02-15T03:25:53.433Z,64.43
2018-02-15T03:28:20.821Z,64.80
2018-02-15T03:30:48.295Z,64.31
2018-02-15T03:33:15.746Z,64.21
2018-02-15T03:35:43.151Z,64.28
2018-02-15T03:38:10.541Z,64.14
2018-02-15T03:40:38.013Z,63.99
2018-02-15T03:43:05.411Z,63.88
2018-02-15T03:45:32.802Z,63.77
2018-02-15T03:48:00.199Z,63.33
2018-02-15T03:50:27.598Z,63.72
2018-02-15T03:52:55.009Z,63.54
2018-02-15T03:55:22.394Z,63.68
2018-02-15T03:57:49.798Z,63.67
2018-02-15T04:00:17.203Z,63.68
2018-02-15T04:02:44.584Z,63.66
2018-02-15T04:05:11.993Z,63.63
2018-02-15T04:07:39.419Z,63.59
2018-02-15T04:10:06.810Z,63.11
2018-02-15T04:12:34.202Z,63.50
2018-02-15T04:15:01.590Z,63.68
2018-02-15T04:17:28.977Z,63.44
2018-02-15T04:19:56.370Z,63.72
2018-02-15T04:22:23.772Z,63.58
2018-02-15T04:24:51.155Z,64.14
2018-02-15T04:27:18.654Z,64.07
2018-02-15T04:29:46.046Z,63.77
2018-02-15T04:32:13.446Z,63.87
2018-02-15T04:34:40.831Z,63.79
2018-02-15T04:37:08.213Z,63.90
2018-02-15T04:39:35.622Z,64.03
2018-02-15T04:42:03.082Z,63.67
2018-02-15T04:44:30.478Z,63.80
2018-02-15T04:46:57.866Z,63.85
2018-02-15T04:49:25.251Z,63.85
2018-02-15T04:51:52.651Z,64.09
2018-02-15T04:54:20.040Z,64.12
2018-02-15T04:56:47.484Z,63.85
2018-02-15T04:59:14.874Z,63.72
2018-02-15T05:01:42.278Z,63.80
2018-02-15T05:04:09.666Z,63.73
2018-02-15T05:06:37.070Z,64.14
2018-02-15T05:09:04.454Z,63.73
2018-02-15T05:11:31.910Z,63.82
2018-02-15T05:13:59.294Z,63.51
2018-02-15T05:16:26.719Z,63.53
2018-02-15T05:18:54.118Z,63.50
2018-02-15T05:21:21.502Z,63.79
2018-02-15T05:23:48.988Z,63.50
2018-02-15T05:26:16.370Z,63.38
2018-02-15T05:28:43.814Z,63.34
2018-02-15T05:31:11.213Z,63.37
2018-02-15T05:33:38.607Z,63.00
2018-02-15T05:36:05.990Z,62.86
2018-02-15T05:38:33.390Z,62.82
2018-02-15T05:41:00.886Z,62.77
2018-02-15T05:43:28.266Z,62.50
2018-02-15T05:45:55.650Z,62.42
2018-02-15T05:48:23.122Z,62.69
2018-02-15T05:50:50.592Z,62.56
2018-02-15T05:53:17.982Z,62.54
2018-02-15T05:55:45.375Z,62.30
2018-02-15T05:58:12.768Z,62.18
2018-02-15T06:00:40.158Z,62.08
2018-02-15T06:03:07.579Z,61.79
2018-02-15T06:05:34.974Z,61.64
2018-02-15T06:08:02.484Z,61.76
2018-02-15T06:10:29.935Z,61.65
2018-02-15T06:12:57.322Z,61.91
2018-02-15T06:15:24.747Z,61.47
2018-02-15T06:17:52.209Z,61.61
2018-02-15T06:20:19.594Z,61.33
2018-02-15T06:22:46.982Z,61.14
2018-02-15T06:25:14.366Z,61.53
2018-02-15T06:27:41.822Z,61.34
2018-02-15T06:30:09.274Z,61.64
2018-02-15T06:32:36.661Z,61.90
2018-02-15T06:35:04.059Z,61.23
2018-02-15T06:37:31.547Z,61.16
2018-02-15T06:39:58.930Z,61.50
2018-02-15T06:42:26.350Z,60.98
2018-02-15T06:44:53.810Z,61.28
2018-02-15T06:47:21.194Z,61.14
2018-02-15T06:49:48.598Z,60.98
2018-02-15T06:52:16.078Z,61.17
2018-02-15T06:54:43.470Z,61.25
2018-02-15T06:57:11.104Z,60.92
2018-02-15T06:59:38.558Z,61.06
2018-02-15T07:02:05.942Z,60.98
2018-02-15T07:04:33.342Z,61.27
2018-02-15T07:07:00.824Z,61.02
2018-02-15T07:09:28.266Z,61.15
2018-02-15T07:11:55.685Z,60.80
2018-02-15T07:14:23.074Z,60.73
2018-02-15T07:16:50.462Z,60.77
2018-02-15T07:19:17.859Z,60.65
2018-02-15T07:21:45.342Z,60.68
2018-02-15T07:24:12.798Z,61.06
2018-02-15T07:26:40.195Z,60.90
2018-02-15T07:29:07.590Z,61.25
2018-02-15T07:31:34.986Z,61.33
2018-02-15T07:34:02.386Z,61.49
2018-02-15T07:36:29.775Z,60.89
2018-02-15T07:38:57.169Z,60.91
2018-02-15T07:41:24.562Z,61.13
2018-02-15T07:43:51.959Z,60.92
2018-02-15T07:46:19.390Z,61.05
2018-02-15T07:48:46.785Z,61.20
2018-02-15T07:51:14.173Z,61.27
2018-02-15T07:53:41.566Z,61.10
2018-02-15T07:56:08.970Z,61.01
2018-02-15T07:58:36.346Z,60.82
2018-02-15T08:01:03.834Z,60.71
2018-02-15T08:03:31.210Z,60.54
2018-02-15T08:05:58.629Z,60.84
2018-02-15T08:08:26.014Z,60.68
2018-02-15T08:10:53.410Z,60.81
2018-02-15T08:13:20.797Z,60.48
2018-02-15T08:15:48.204Z,60.23
2018-02-15T08:18:15.591Z,60.27
2018-02-15T08:20:43.075Z,60.48
2018-02-15T08:23:10.454Z,60.42
2018-02-15T08:25:37.854Z,60.50
2018-02-15T08:28:05.249Z,60.48
2018-02-15T08:30:32.681Z,59.98
2018-02-15T08:33:00.070Z,59.85
2018-02-15T08:35:27.496Z,59.87
2018-02-15T08:37:54.878Z,59.76
2018-02-15T08:40:22.279Z,60.31
2018-02-15T08:42:49.658Z,59.95
2018-02-15T08:45:17.055Z,59.69
2018-02-15T08:47:44.434Z,59.64
2018-02-15T08:50:11.828Z,59.53
2018-02-15T08:52:39.272Z,59.06
2018-02-15T08:55:06.662Z,59.41
2018-02-15T08:57:34.083Z,59.45
2018-02-15T09:00:01.474Z,59.53
2018-02-15T09:02:28.861Z,58.85
2018-02-15T09:04:56.254Z,58.84
2018-02-15T09:07:23.650Z,58.94
2018-02-15T09:09:51.034Z,58.55
2018-02-15T09:12:18.430Z,58.54
2018-02-15T09:14:45.819Z,58.75
2018-02-15T09:17:13.214Z,58.11
2018-02-15T09:19:40.678Z,58.36
2018-02-15T09:22:08.074Z,58.25
2018-02-15T09:24:35.482Z,58.33
2018-02-15T09:27:02.919Z,58.12
2018-02-15T09:29:30.297Z,58.12
2018-02-15T09:31:57.699Z,58.59
2018-02-15T09:34:25.081Z,57.68
2018-02-15T09:36:52.566Z,57.93
2018-02-15T09:39:19.980Z,57.98
2018-02-15T09:41:47.477Z,57.75
2018-02-15T09:44:14.886Z,58.17
2018-02-15T09:46:42.342Z,58.00
2018-02-15T09:49:09.726Z,58.07
2018-02-15T09:51:37.114Z,57.67
2018-02-15T09:54:04.507Z,57.93
2018-02-15T09:56:31.901Z,57.86
2018-02-15T09:58:59.295Z,57.75
2018-02-15T10:01:26.690Z,57.45
2018-02-15T10:03:54.174Z,58.19
2018-02-15T10:06:21.570Z,58.48
2018-02-15T10:08:48.958Z,58.93
2018-02-15T10:11:16.370Z,59.73
2018-02-15T10:13:43.770Z,59.46
2018-02-15T10:16:11.163Z,61.45
2018-02-15T10:18:38.546Z,61.96
2018-02-15T10:21:05.957Z,63.60
2018-02-15T10:23:33.346Z,63.30
2018-02-15T10:26:00.766Z,63.84
2018-02-15T10:28:28.226Z,65.10
2018-02-15T10:30:55.691Z,67.08
2018-02-15T10:33:23.141Z,69.05
2018-02-15T10:35:50.538Z,70.83
2018-02-15T10:38:17.953Z,72.16
2018-02-15T10:40:45.349Z,73.01
2018-02-15T10:43:12.729Z,74.86
2018-02-15T10:45:40.127Z,76.26
2018-02-15T10:48:07.515Z,77.38
2018-02-15T10:50:34.917Z,78.73
2018-02-15T10:53:02.306Z,79.16
2018-02-15T10:55:29.702Z,79.94
2018-02-15T10:57:57.098Z,80.45
2018-02-15T11:00:30.278Z,80.44
2018-02-15T11:03:03.380Z,81.38
2018-02-15T11:05:40.294Z,81.86
2018-02-15T11:08:07.694Z,82.36
2018-02-15T11:10:35.086Z,82.00
2018-02-15T11:13:02.491Z,81.88
2018-02-15T11:15:29.879Z,81.98
2018-02-15T11:17:57.274Z,83.04
2018-02-15T11:20:24.662Z,83.05
2018-02-15T11:22:52.063Z,83.48
2018-02-15T11:25:19.454Z,83.83
2018-02-15T11:27:46.938Z,84.12
2018-02-15T11:30:14.398Z,83.65
2018-02-15T11:32:41.803Z,83.94
2018-02-15T11:35:09.210Z,83.19
2018-02-15T11:37:36.615Z,83.46
2018-02-15T11:40:04.002Z,83.70
2018-02-15T11:42:31.472Z,83.43
2018-02-15T11:44:58.863Z,83.68
2018-02-15T11:47:26.292Z,83.82
2018-02-15T11:49:53.674Z,84.22
2018-02-15T11:52:21.066Z,84.62
2018-02-15T11:54:48.464Z,84.90
2018-02-15T11:57:15.847Z,84.98
2018-02-15T11:59:43.271Z,85.02
2018-02-15T12:02:10.671Z,85.46
2018-02-15T12:04:38.061Z,85.77
2018-02-15T12:07:05.462Z,86.28
2018-02-15T12:09:32.859Z,86.60
2018-02-15T12:12:00.249Z,86.62
2018-02-15T12:14:27.639Z,86.35
2018-02-15T12:16:55.147Z,86.39
2018-02-15T12:19:22.539Z,86.47
2018-02-15T12:21:49.950Z,86.73
2018-02-15T12:24:17.405Z,86.80
2018-02-15T12:26:44.866Z,86.59
2018-02-15T12:29:12.262Z,86.87
2018-02-15T12:31:39.675Z,87.24
2018-02-15T12:34:07.069Z,87.00
2018-02-15T12:36:34.509Z,86.82
2018-02-15T12:39:01.883Z,86.98
2018-02-15T12:41:29.293Z,87.38
2018-02-15T12:43:56.686Z,87.35
2018-02-15T12:46:24.108Z,87.31
2018-02-15T12:48:51.498Z,87.75
2018-02-15T12:51:18.904Z,87.51
2018-02-15T12:53:46.313Z,87.91
2018-02-15T12:56:13.710Z,88.42
2018-02-15T12:58:41.119Z,88.53
2018-02-15T13:01:08.514Z,88.67
2018-02-15T13:03:35.916Z,88.98
2018-02-15T13:06:03.347Z,89.02
2018-02-15T13:08:30.704Z,89.33
2018-02-15T13:10:58.239Z,89.41
2018-02-15T13:13:31.626Z,89.83
2018-02-15T13:16:10.985Z,89.78
2018-02-15T13:18:38.382Z,90.39
2018-02-15T13:21:05.772Z,89.83
2018-02-15T13:23:33.170Z,89.08
2018-02-15T13:26:00.565Z,88.56
2018-02-15T13:28:35.672Z,88.45
2018-02-15T13:31:03.066Z,88.08
2018-02-15T13:33:30.470Z,88.25
2018-02-15T13:35:57.910Z,88.14
2018-02-15T13:38:25.362Z,87.89
2018-02-15T13:40:52.826Z,87.82
2018-02-15T13:43:20.233Z,87.53
2018-02-15T13:45:47.746Z,87.47
2018-02-15T13:48:15.157Z,87.21
2018-02-15T13:50:42.546Z,87.10
2018-02-15T13:53:09.943Z,87.22
2018-02-15T13:55:37.358Z,87.17
2018-02-15T13:58:04.767Z,87.39
2018-02-15T14:00:32.270Z,87.14
2018-02-15T14:02:59.689Z,87.35
2018-02-15T14:05:27.184Z,87.84
2018-02-15T14:07:54.569Z,88.13
2018-02-15T14:10:21.990Z,88.22
2018-02-15T14:12:49.385Z,88.08
2018-02-15T14:15:16.808Z,88.07
2018-02-15T14:17:44.197Z,88.13
2018-02-15T14:20:11.590Z,88.00
2018-02-15T14:22:39.066Z,88.42
2018-02-15T14:25:06.467Z,89.01
2018-02-15T14:27:33.878Z,89.60
2018-02-15T14:30:01.333Z,89.98
2018-02-15T14:32:28.842Z,90.11
2018-02-15T14:34:56.199Z,89.91
2018-02-15T14:37:23.603Z,89.81
2018-02-15T14:39:51.062Z,90.00
2018-02-15T14:42:18.451Z,90.08
2018-02-15T14:44:45.845Z,89.91
2018-02-15T14:47:13.248Z,89.61
2018-02-15T14:49:40.652Z,89.76
2018-02-15T14:52:08.147Z,89.83
2018-02-15T14:54:35.554Z,90.30
2018-02-15T14:57:02.939Z,90.20
2018-02-15T14:59:30.338Z,89.99
2018-02-15T15:01:57.730Z,90.24
2018-02-15T15:04:25.142Z,90.53
2018-02-15T15:06:52.542Z,90.43
2018-02-15T15:09:20.017Z,90.42
2018-02-15T15:11:47.491Z,90.27
2018-02-15T15:14:14.881Z,89.75
2018-02-15T15:16:42.270Z,89.60
2018-02-15T15:19:09.666Z,88.94
2018-02-15T15:21:37.099Z,89.03
2018-02-15T15:24:04.498Z,89.03
2018-02-15T15:26:31.909Z,88.95
2018-02-15T15:28:59.315Z,88.61
2018-02-15T15:31:26.703Z,88.80
2018-02-15T15:33:54.169Z,88.75
2018-02-15T15:36:21.553Z,88.13
2018-02-15T15:38:49.012Z,88.02
2018-02-15T15:41:16.378Z,88.29
2018-02-15T15:43:43.794Z,88.48
2018-02-15T15:46:11.182Z,88.38
2018-02-15T15:48:39.467Z,88.35
2018-02-15T15:51:06.850Z,87.61
2018-02-15T15:53:34.249Z,87.35
2018-02-15T15:56:01.649Z,87.14
2018-02-15T15:58:29.046Z,87.50
2018-02-15T16:00:56.455Z,87.77
2018-02-15T16:03:23.842Z,87.24
2018-02-15T16:05:51.238Z,86.87
2018-02-15T16:08:18.643Z,87.42
2018-02-15T16:10:46.119Z,87.96
2018-02-15T16:13:13.590Z,88.45
2018-02-15T16:15:41.028Z,88.50
2018-02-15T16:18:08.438Z,87.96
2018-02-15T16:20:35.839Z,87.23
2018-02-15T16:23:03.298Z,88.14
2018-02-15T16:25:30.786Z,88.65
2018-02-15T16:27:58.178Z,88.16
2018-02-15T16:30:25.572Z,87.70
2018-02-15T16:32:52.962Z,88.14
2018-02-15T16:35:20.357Z,88.23
2018-02-15T16:37:47.751Z,87.67
2018-02-15T16:40:15.145Z,87.70
2018-02-15T16:42:42.533Z,87.89
2018-02-15T16:45:09.929Z,87.19
2018-02-15T16:47:37.347Z,87.22
2018-02-15T16:50:04.812Z,87.51
2018-02-15T16:52:32.198Z,87.83
2018-02-15T16:54:59.610Z,88.14
2018-02-15T16:57:27.066Z,87.76
2018-02-15T16:59:54.462Z,87.13
2018-02-15T17:02:21.855Z,86.85
2018-02-15T17:04:49.254Z,87.00
2018-02-15T17:07:16.646Z,86.36
2018-02-15T17:09:44.038Z,85.76
2018-02-15T17:12:11.430Z,85.58
2018-02-15T17:14:38.821Z,85.54
2018-02-15T17:17:06.306Z,85.80
2018-02-15T17:19:33.702Z,85.36
2018-02-15T17:22:01.118Z,84.66
2018-02-15T17:24:28.543Z,84.55
2018-02-15T17:26:55.922Z,84.98
2018-02-15T17:29:23.329Z,84.77
2018-02-15T17:31:50.717Z,85.36
2018-02-15T17:34:18.193Z,84.88
2018-02-15T17:36:45.588Z,84.71
2018-02-15T17:39:12.990Z,84.05
2018-02-15T17:41:41.079Z,83.80
2018-02-15T17:44:08.479Z,84.27
2018-02-15T17:46:35.874Z,84.36
2018-02-15T17:49:03.342Z,84.38
2018-02-15T17:51:30.745Z,84.70
2018-02-15T17:53:58.134Z,85.02
2018-02-15T17:56:25.610Z,84.75
2018-02-15T17:58:53.090Z,84.94
2018-02-15T18:01:20.494Z,85.33
2018-02-15T18:03:47.889Z,86.01
2018-02-15T18:06:15.385Z,86.06
2018-02-15T18:08:42.782Z,85.76
2018-02-15T18:11:10.174Z,85.62
2018-02-15T18:13:37.618Z,84.97
2018-02-15T18:16:05.048Z,84.87
2018-02-15T18:18:32.483Z,85.15
2018-02-15T18:20:59.989Z,85.17
2018-02-15T18:23:27.368Z,84.85
2018-02-15T18:25:54.773Z,84.03
2018-02-15T18:28:22.246Z,83.16
2018-02-15T18:30:49.638Z,84.80
2018-02-15T18:33:17.048Z,85.17
2018-02-15T18:35:44.492Z,84.65
2018-02-15T18:38:11.883Z,84.63
2018-02-15T18:40:39.273Z,85.23
2018-02-15T18:43:06.672Z,85.28
2018-02-15T18:45:34.070Z,85.93
2018-02-15T18:48:01.493Z,85.94
2018-02-15T18:50:28.863Z,85.07
2018-02-15T18:52:57.151Z,84.70
2018-02-15T18:55:24.662Z,84.69
2018-02-15T18:57:52.054Z,84.62
2018-02-15T19:00:19.454Z,84.54
2018-02-15T19:02:46.926Z,84.16
2018-02-15T19:05:14.334Z,84.04
2018-02-15T19:07:41.718Z,83.79
2018-02-15T19:10:09.119Z,84.13
2018-02-15T19:12:36.511Z,83.71
2018-02-15T19:15:03.905Z,84.00
2018-02-15T19:17:31.358Z,84.40
2018-02-15T19:19:58.818Z,83.86
2018-02-15T19:22:26.269Z,83.81
2018-02-15T19:24:53.662Z,83.80
2018-02-15T19:27:21.049Z,83.66
2018-02-15T19:29:48.535Z,83.74
2018-02-15T19:32:15.930Z,83.39
2018-02-15T19:34:43.346Z,83.25
2018-02-15T19:37:10.798Z,82.62
2018-02-15T19:39:38.194Z,82.39
2018-02-15T19:42:05.585Z,82.20
2018-02-15T19:44:32.986Z,82.04
2018-02-15T19:47:00.380Z,82.42
2018-02-15T19:49:27.778Z,82.45
2018-02-15T19:51:55.248Z,83.11
2018-02-15T19:54:22.638Z,84.10
2018-02-15T19:56:50.093Z,84.49
2018-02-15T19:59:17.560Z,84.75
2018-02-15T20:01:44.966Z,84.85
2018-02-15T20:04:12.354Z,84.92
2018-02-15T20:06:39.758Z,84.70
2018-02-15T20:09:07.165Z,85.57
2018-02-15T20:11:34.637Z,85.72
2018-02-15T20:14:02.067Z,85.70
2018-02-15T20:16:29.462Z,86.32
2018-02-15T20:18:56.886Z,86.74
2018-02-15T20:21:24.349Z,87.38
2018-02-15T20:23:51.801Z,88.69
2018-02-15T20:26:25.039Z,89.70
2018-02-15T20:28:52.433Z,90.02
2018-02-15T20:31:19.906Z,90.23
2018-02-15T20:33:47.305Z,90.98
2018-02-15T20:36:14.795Z,91.46
2018-02-15T20:38:47.766Z,91.18
2018-02-15T20:41:15.167Z,91.09
2018-02-15T20:43:42.567Z,90.58
2018-02-15T20:46:09.996Z,90.48
2018-02-15T20:48:37.432Z,90.39
2018-02-15T20:51:10.539Z,91.13
2018-02-15T20:53:43.570Z,90.98
2018-02-15T20:56:11.174Z,89.89
2018-02-15T20:58:38.566Z,90.11
2018-02-15T21:01:06.073Z,90.03
2018-02-15T21:03:33.466Z,89.94
2018-02-15T21:06:00.878Z,90.14
2018-02-15T21:08:28.278Z,90.23
2018-02-15T21:10:55.722Z,89.70
2018-02-15T21:13:23.082Z,89.10
2018-02-15T21:15:50.485Z,89.29
2018-02-15T21:18:17.895Z,89.02
2018-02-15T21:20:45.320Z,88.24
2018-02-15T21:23:12.716Z,87.42
2018-02-15T21:25:40.113Z,86.28
2018-02-15T21:28:07.513Z,86.11
2018-02-15T21:30:34.914Z,86.44
2018-02-15T21:33:02.347Z,85.31
2018-02-15T21:35:29.850Z,84.75
2018-02-15T21:37:57.238Z,84.32
2018-02-15T21:40:24.627Z,83.88
2018-02-15T21:42:52.031Z,83.21
2018-02-15T21:45:19.428Z,83.38
2018-02-15T21:47:46.926Z,84.09
2018-02-15T21:50:14.378Z,83.47
2018-02-15T21:52:41.783Z,82.88
2018-02-15T21:55:09.174Z,83.38
2018-02-15T21:57:36.643Z,83.80
2018-02-15T22:00:04.098Z,83.68
2018-02-15T22:02:31.506Z,83.50
2018-02-15T22:04:58.914Z,83.00
2018-02-15T22:07:26.414Z,82.30
2018-02-15T22:09:53.842Z,82.32
2018-02-15T22:12:21.234Z,82.85
2018-02-15T22:14:48.646Z,83.26
2018-02-15T22:17:16.051Z,82.37
2018-02-15T22:19:43.458Z,82.44
2018-02-15T22:22:10.863Z,82.25
2018-02-15T22:24:38.360Z,82.05
2018-02-15T22:27:05.766Z,81.73
2018-02-15T22:29:33.167Z,81.83
2018-02-15T22:32:00.638Z,82.37
2018-02-15T22:34:28.018Z,82.23
2018-02-15T22:36:55.742Z,82.36
2018-02-15T22:39:23.142Z,83.40
2018-02-15T22:41:50.550Z,84.72
2018-02-15T22:44:17.997Z,83.70
2018-02-15T22:46:45.565Z,83.43
2018-02-15T22:49:12.975Z,83.58
2018-02-15T22:51:40.373Z,84.12
2018-02-15T22:54:07.782Z,83.51
2018-02-15T22:56:35.181Z,83.71
2018-02-15T22:59:02.583Z,84.61
2018-02-15T23:01:29.996Z,85.51
2018-02-15T23:03:57.388Z,85.67
2018-02-15T23:06:24.786Z,85.07
2018-02-15T23:08:52.189Z,86.50
2018-02-15T23:11:19.584Z,86.71
2018-02-15T23:13:47.007Z,86.36
2018-02-15T23:16:14.424Z,85.91
2018-02-15T23:18:41.891Z,86.05
2018-02-15T23:21:09.304Z,86.95
2018-02-15T23:23:36.794Z,86.15
2018-02-15T23:26:04.247Z,86.35
2018-02-15T23:28:31.647Z,86.88
2018-02-15T23:30:59.042Z,86.55
2018-02-15T23:33:26.510Z,86.35
2018-02-15T23:35:53.915Z,85.71
2018-02-15T23:38:21.310Z,86.13
2018-02-15T23:40:48.706Z,85.53
2018-02-15T23:43:16.107Z,86.04
2018-02-15T23:45:43.599Z,85.27
2018-02-15T23:48:11.011Z,85.62
2018-02-15T23:50:38.506Z,86.02
2018-02-15T23:53:05.967Z,86.89
2018-02-15T23:55:33.362Z,86.40
2018-02-15T23:58:00.771Z,88.45
